Details for Ryanair at LPPR




Go Back


Latest METAR
Local Time

LPPR 180430Z 08003KT CAVOK 06/02 Q1025

18/02/2018, 04:37:20

Description
Results
Ryanair Logo
Number of Pilots based at LPPR
1 Pilots Based here
Number of Ryanair Flights Departed from LPPR
3 Flights Departed
Number of Ryanair Flights Arrived at LPPR
4 Flights Arrived
Number of Ryanair Schedules Departing from LPPR
99 Schedules
Number of Ryanair Schedules Arriving at LPPR
102 Schedules
Number of Ryanair Schedules Departing from LPPR availible today
35 Schedules Today
Number of Ryanair Schedules Arriving at LPPR availible today
35 Schedules Today
Average Landing Rate at LPPR
-196 fpm
Ryanair Average Landing Rate at LPPR
-88 fpm
Total Fuel Purchased at LPPR by Ryanair
11,157.47 kgs / 24,597.76 lbs

Pilots Based at LPPR


Pilot ID
Pilot Name
Pilot Rank
No. of Flights
No. of Flying Hours
Fernando Só Silva
160
332.13
Content